Time,TemperatureF,DewpointF,PressureIn,WindDirection,WindDirectionDegrees,WindSpeedMPH,WindSpeedGustMPH,Humidity,HourlyPrecipIn,Conditions,Clouds,dailyrainin,SoftwareType,DateUTC
2013-04-11 00:00:00,56.8,51.0,29.82,North,0,11.5,11.5,81,0.00,CLR,,0.00,WeatherDisplay:10.37,2013-04-11 05:00:00,
2013-04-11 00:05:00,56.7,50.9,29.82,WNW,285,16.1,16.1,81,0.00,CLR,,0.00,WeatherDisplay:10.37,2013-04-11 05:05:00,
2013-04-11 00:10:00,56.5,50.4,29.82,WNW,295,13.8,13.8,80,0.00,CLR,,0.00,WeatherDisplay:10.37,2013-04-11 05:10:00,
2013-04-11 00:15:00,56.4,50.3,29.82,North,1,15.0,15.0,80,0.00,CLR,,0.00,WeatherDisplay:10.37,2013-04-11 05:15:00,
2013-04-11 00:20:00,56.4,50.3,29.82,NNE,12,16.1,16.1,80,0.00,CLR,,0.00,WeatherDisplay:10.37,2013-04-11 05:20:00,
2013-04-11 00:25:00,56.2,50.1,29.82,NNE,19,11.5,11.5,80,0.00,CLR,,0.00,WeatherDisplay:10.37,2013-04-11 05:25:00,
2013-04-11 00:30:00,56.1,50.0,29.82,NNW,344,10.4,10.4,80,0.00,CLR,,0.00,WeatherDisplay:10.37,2013-04-11 05:30:00,
2013-04-11 00:35:00,55.9,49.8,29.82,NNW,348,16.1,16.1,80,0.00,CLR,,0.00,WeatherDisplay:10.37,2013-04-11 05:35:00,
2013-04-11 00:40:00,55.8,49.7,29.82,NNE,16,15.0,15.0,80,0.00,CLR,,0.00,WeatherDisplay:10.37,2013-04-11 05:40:00,
2013-04-11 00:45:00,55.8,49.7,29.82,WNW,300,12.7,12.7,80,0.00,CLR,,0.00,WeatherDisplay:10.37,2013-04-11 05:45:00,
2013-04-11 00:50:00,55.8,49.7,29.82,North,0,15.0,15.0,80,0.00,CLR,,0.00,WeatherDisplay:10.37,2013-04-11 05:50:00,
2013-04-11 00:55:00,55.8,49.7,29.82,NNE,21,11.5,11.5,80,0.00,CLR,,0.00,WeatherDisplay:10.37,2013-04-11 05:55:00,
2013-04-11 01:00:00,55.8,49.7,29.82,NNW,329,13.8,13.8,80,0.00,CLR,,0.00,WeatherDisplay:10.37,2013-04-11 06:00:00,
2013-04-11 01:05:00,55.7,49.6,29.82,North,1,15.0,15.0,80,0.00,CLR,,0.00,WeatherDisplay:10.37,2013-04-11 06:05:00,
2013-04-11 01:10:00,55.4,49.3,29.82,North,0,13.8,13.8,80,0.00,CLR,,0.00,WeatherDisplay:10.37,2013-04-11 06:10:00,
2013-04-11 01:15:00,55.2,49.1,29.82,NW,320,10.4,10.4,80,0.00,CLR,,0.00,WeatherDisplay:10.37,2013-04-11 06:15:00,
2013-04-11 01:20:00,55.1,49.4,29.82,North,1,10.4,10.4,81,0.00,CLR,,0.00,WeatherDisplay:10.37,2013-04-11 06:20:00,
2013-04-11 01:25:00,54.8,48.7,29.82,NW,306,12.7,12.7,80,0.00,CLR,,0.00,WeatherDisplay:10.37,2013-04-11 06:25:00,
2013-04-11 01:30:00,54.6,48.9,29.82,NW,326,10.4,10.4,81,0.00,CLR,,0.00,WeatherDisplay:10.37,2013-04-11 06:30:00,
2013-04-11 01:35:00,54.4,48.4,29.82,NNE,33,13.8,13.8,80,0.00,CLR,,0.00,WeatherDisplay:10.37,2013-04-11 06:35:00,
2013-04-11 01:40:00,54.2,48.2,29.82,WNW,293,13.8,13.8,80,0.00,CLR,,0.00,WeatherDisplay:10.37,2013-04-11 06:40:00,
2013-04-11 01:45:00,54.1,48.1,29.82,NNW,345,17.3,17.3,80,0.00,CLR,,0.00,WeatherDisplay:10.37,2013-04-11 06:45:00,
2013-04-11 01:50:00,54.1,48.1,29.82,North,0,15.0,15.0,80,0.00,CLR,,0.00,WeatherDisplay:10.37,2013-04-11 06:50:00,
2013-04-11 01:55:00,54.1,48.1,29.82,NNE,13,10.4,10.4,80,0.00,CLR,,0.00,WeatherDisplay:10.37,2013-04-11 06:55:00,
2013-04-11 02:00:00,54.1,48.1,29.82,NNW,343,16.1,16.1,80,0.00,CLR,,0.00,WeatherDisplay:10.37,2013-04-11 07:00:00,
2013-04-11 02:05:00,54.1,48.1,29.83,NNE,32,15.0,15.0,80,0.00,CLR,,0.00,WeatherDisplay:10.37,2013-04-11 07:05:00,
2013-04-11 02:10:00,54.1,48.1,29.83,NNW,342,17.3,17.3,80,0.00,CLR,,0.00,WeatherDisplay:10.37,2013-04-11 07:10:00,
2013-04-11 02:15:00,53.9,47.5,29.82,NNE,27,13.8,13.8,79,0.00,CLR,,0.00,WeatherDisplay:10.37,2013-04-11 07:15:00,
2013-04-11 02:20:00,53.7,47.7,29.82,North,2,15.0,15.0,80,0.00,CLR,,0.00,WeatherDisplay:10.37,2013-04-11 07:20:00,
2013-04-11 02:25:00,53.6,47.6,29.82,NNE,17,12.7,12.7,80,0.00,CLR,,0.00,WeatherDisplay:10.37,2013-04-11 07:25:00,
2013-04-11 02:30:00,53.6,47.9,29.82,NW,314,13.8,13.8,81,0.00,CLR,,0.00,WeatherDisplay:10.37,2013-04-11 07:30:00,
2013-04-11 02:35:00,53.5,47.8,29.82,NNE,25,13.8,13.8,81,0.00,CLR,,0.00,WeatherDisplay:10.37,2013-04-11 07:35:00,
2013-04-11 02:40:00,53.4,47.4,29.82,North,349,18.4,18.4,80,0.00,CLR,,0.00,WeatherDisplay:10.37,2013-04-11 07:40:00,
2013-04-11 02:45:00,53.2,47.2,29.82,NNE,20,16.1,16.1,80,0.00,CLR,,0.00,WeatherDisplay:10.37,2013-04-11 07:45:00,
2013-04-11 02:50:00,52.9,46.9,29.80,NNW,347,19.6,19.6,80,0.00,CLR,,0.00,WeatherDisplay:10.37,2013-04-11 07:50:00,
2013-04-11 02:55:00,52.6,46.6,29.79,NE,56,24.2,24.2,80,0.00,CLR,,0.00,WeatherDisplay:10.37,2013-04-11 07:55:00,
2013-04-11 03:00:00,52.3,46.3,29.79,North,359,19.6,19.6,80,0.00,CLR,,0.00,WeatherDisplay:10.37,2013-04-11 08:00:00,
2013-04-11 03:05:00,52.2,46.5,29.80,North,8,17.3,17.3,81,0.00,CLR,,0.00,WeatherDisplay:10.37,2013-04-11 08:05:00,
2013-04-11 03:10:00,52.1,46.4,29.82,North,1,16.1,16.1,81,0.00,CLR,,0.00,WeatherDisplay:10.37,2013-04-11 08:10:00,
2013-04-11 03:15:00,52.0,46.0,29.83,NW,308,19.6,19.6,80,0.00,CLR,,0.00,WeatherDisplay:10.37,2013-04-11 08:15:00,
2013-04-11 03:20:00,51.8,45.8,29.83,NNW,333,17.3,17.3,80,0.00,CLR,,0.00,WeatherDisplay:10.37,2013-04-11 08:20:00,
2013-04-11 03:25:00,51.6,46.0,29.83,North,1,15.0,15.0,81,0.00,CLR,,0.00,WeatherDisplay:10.37,2013-04-11 08:25:00,
2013-04-11 03:30:00,51.4,46.4,29.83,NNW,328,10.4,10.4,83,0.00,CLR,,0.00,WeatherDisplay:10.37,2013-04-11 08:30:00,
2013-04-11 03:35:00,50.6,46.6,29.84,NNW,345,15.0,15.0,86,0.01,RA,,0.01,WeatherDisplay:10.37,2013-04-11 08:35:00,
2013-04-11 03:40:00,50.2,46.8,29.83,NE,36,17.3,17.3,88,0.01,RA,,0.01,WeatherDisplay:10.37,2013-04-11 08:40:00,
2013-04-11 03:45:00,50.0,46.6,29.82,North,1,11.5,11.5,88,0.01,CLR,,0.01,WeatherDisplay:10.37,2013-04-11 08:45:00,
2013-04-11 03:50:00,49.9,46.5,29.83,North,355,16.1,16.1,88,0.01,CLR,,0.01,WeatherDisplay:10.37,2013-04-11 08:50:00,
2013-04-11 03:55:00,50.1,46.4,29.84,WNW,288,16.1,16.1,87,0.01,CLR,,0.01,WeatherDisplay:10.37,2013-04-11 08:55:00,
2013-04-11 04:00:00,50.2,46.5,29.88,WNW,284,13.8,13.8,87,0.01,CLR,,0.02,WeatherDisplay:10.37,2013-04-11 09:00:00,
2013-04-11 04:05:00,49.5,46.4,29.86,North,1,18.4,18.4,89,0.09,RA,,0.10,WeatherDisplay:10.37,2013-04-11 09:05:00,
2013-04-11 04:10:00,48.6,46.1,29.86,NW,321,16.1,16.1,91,0.14,RA,,0.14,WeatherDisplay:10.37,2013-04-11 09:10:00,
2013-04-11 04:15:00,48.1,45.9,29.83,North,356,15.0,15.0,92,0.17,RA,,0.17,WeatherDisplay:10.37,2013-04-11 09:15:00,
2013-04-11 04:20:00,47.9,46.0,29.84,NW,321,17.3,17.3,93,0.18,RA,,0.18,WeatherDisplay:10.37,2013-04-11 09:20:00,
2013-04-11 04:25:00,47.8,46.2,29.84,WNW,291,19.6,19.6,94,0.18,RA,,0.18,WeatherDisplay:10.37,2013-04-11 09:25:00,
2013-04-11 04:30:00,47.6,46.0,29.84,NNW,330,18.4,18.4,94,0.19,RA,,0.19,WeatherDisplay:10.37,2013-04-11 09:30:00,
2013-04-11 04:35:00,46.7,45.1,29.84,North,355,12.7,12.7,94,0.18,RA,,0.19,WeatherDisplay:10.37,2013-04-11 09:35:00,
2013-04-11 04:40:00,46.4,45.0,29.85,West,259,19.6,19.6,95,0.18,,,0.19,WeatherDisplay:10.37,2013-04-11 09:40:00,
2013-04-11 04:45:00,46.4,45.3,29.84,North,6,18.4,18.4,96,0.23,RA,,0.25,WeatherDisplay:10.37,2013-04-11 09:45:00,
2013-04-11 04:50:00,46.2,45.1,29.85,WNW,291,17.3,17.3,96,0.32,RA,,0.33,WeatherDisplay:10.37,2013-04-11 09:50:00,
2013-04-11 04:55:00,46.2,45.4,29.86,NNW,341,18.4,18.4,97,0.35,RA,,0.36,WeatherDisplay:10.37,2013-04-11 09:55:00,
2013-04-11 05:00:00,46.4,45.6,29.84,North,355,12.7,12.7,97,0.42,RA,,0.43,WeatherDisplay:10.37,2013-04-11 10:00:00,
2013-04-11 05:05:00,46.5,45.7,29.87,NE,44,13.8,13.8,97,0.38,RA,,0.48,WeatherDisplay:10.37,2013-04-11 10:05:00,
2013-04-11 05:10:00,46.6,46.1,29.89,North,4,9.2,9.2,98,0.37,RA,,0.51,WeatherDisplay:10.37,2013-04-11 10:10:00,
2013-04-11 05:15:00,46.6,46.1,29.88,North,0,11.5,11.5,98,0.34,RA,,0.51,WeatherDisplay:10.37,2013-04-11 10:15:00,
2013-04-11 05:20:00,46.6,45.8,29.85,NNW,347,9.2,9.2,97,0.33,,,0.51,WeatherDisplay:10.37,2013-04-11 10:20:00,
2013-04-11 05:25:00,46.6,46.1,29.85,North,352,16.1,16.1,98,0.33,CLR,,0.51,WeatherDisplay:10.37,2013-04-11 10:25:00,
2013-04-11 05:30:00,46.7,45.9,29.84,North,359,15.0,15.0,97,0.32,CLR,,0.51,WeatherDisplay:10.37,2013-04-11 10:30:00,
2013-04-11 05:35:00,46.7,45.9,29.84,North,354,10.4,10.4,97,0.32,CLR,,0.51,WeatherDisplay:10.37,2013-04-11 10:35:00,
2013-04-11 05:40:00,46.8,46.0,29.85,NNW,337,10.4,10.4,97,0.32,CLR,,0.51,WeatherDisplay:10.37,2013-04-11 10:40:00,
2013-04-11 05:45:00,46.9,46.1,29.85,North,356,3.5,3.5,97,0.27,CLR,,0.51,WeatherDisplay:10.37,2013-04-11 10:45:00,
2013-04-11 05:50:00,47.0,46.2,29.87,North,1,5.8,5.8,97,0.18,CLR,,0.51,WeatherDisplay:10.37,2013-04-11 10:50:00,
2013-04-11 05:55:00,47.1,46.3,29.87,NE,55,6.9,6.9,97,0.15,CLR,,0.51,WeatherDisplay:10.37,2013-04-11 10:55:00,
2013-04-11 06:00:00,47.2,46.4,29.87,NNE,31,6.9,6.9,97,0.08,CLR,,0.51,WeatherDisplay:10.37,2013-04-11 11:00:00,
2013-04-11 06:05:00,47.4,46.6,29.88,North,10,9.4,9.4,97,0.04,CLR,,0.51,WeatherDisplay:10.37,2013-04-11 11:05:00,
2013-04-11 06:10:00,47.5,46.7,29.88,North,349,8.1,8.1,97,0.00,CLR,,0.51,WeatherDisplay:10.37,2013-04-11 11:10:00,
2013-04-11 06:15:00,47.5,46.4,29.89,North,5,6.9,6.9,96,0.00,CLR,,0.51,WeatherDisplay:10.37,2013-04-11 11:15:00,
2013-04-11 06:20:00,47.5,46.4,29.88,NNE,30,6.9,6.9,96,0.00,CLR,,0.51,WeatherDisplay:10.37,2013-04-11 11:20:00,
2013-04-11 06:25:00,47.4,46.3,29.88,NNE,17,6.9,6.9,96,0.00,CLR,,0.51,WeatherDisplay:10.37,2013-04-11 11:25:00,
2013-04-11 06:30:00,47.4,46.3,29.88,North,1,8.1,8.1,96,0.00,CLR,,0.51,WeatherDisplay:10.37,2013-04-11 11:30:00,
2013-04-11 06:35:00,47.4,46.3,29.87,NE,47,15.0,15.0,96,0.00,CLR,,0.51,WeatherDisplay:10.37,2013-04-11 11:35:00,
2013-04-11 06:40:00,47.3,46.2,29.87,North,11,15.0,15.0,96,0.00,CLR,,0.51,WeatherDisplay:10.37,2013-04-11 11:40:00,
2013-04-11 06:45:00,47.2,45.8,29.87,NNE,24,9.2,9.2,95,0.00,CLR,,0.51,WeatherDisplay:10.37,2013-04-11 11:45:00,
2013-04-11 06:50:00,47.2,45.8,29.87,NE,56,9.2,9.2,95,0.00,CLR,,0.51,WeatherDisplay:10.37,2013-04-11 11:50:00,
2013-04-11 06:55:00,47.2,45.8,29.87,NE,45,9.2,9.2,95,0.00,CLR,,0.51,WeatherDisplay:10.37,2013-04-11 11:55:00,
2013-04-11 07:00:00,47.2,45.8,29.85,ENE,61,6.9,6.9,95,0.00,CLR,,0.51,WeatherDisplay:10.37,2013-04-11 12:00:00,
2013-04-11 07:05:00,47.2,45.8,29.85,NE,46,9.2,9.2,95,0.00,CLR,,0.51,WeatherDisplay:10.37,2013-04-11 12:05:00,
2013-04-11 07:10:00,47.2,45.8,29.86,North,1,11.5,11.5,95,0.00,CLR,,0.51,WeatherDisplay:10.37,2013-04-11 12:10:00,
2013-04-11 07:15:00,47.2,45.6,29.85,NE,34,12.7,12.7,94,0.00,CLR,,0.51,WeatherDisplay:10.37,2013-04-11 12:15:00,
2013-04-11 07:20:00,47.1,45.5,29.83,ENE,70,11.5,11.5,94,0.00,CLR,,0.51,WeatherDisplay:10.37,2013-04-11 12:20:00,
2013-04-11 07:25:00,46.9,45.0,29.83,ENE,60,13.8,13.8,93,0.00,CLR,,0.51,WeatherDisplay:10.37,2013-04-11 12:25:00,
2013-04-11 07:30:00,46.9,44.4,29.85,North,2,12.7,12.7,91,0.00,CLR,,0.51,WeatherDisplay:10.37,2013-04-11 12:30:00,
2013-04-11 07:35:00,47.0,43.9,29.85,NE,41,15.0,15.0,89,0.00,CLR,,0.51,WeatherDisplay:10.37,2013-04-11 12:35:00,
2013-04-11 07:40:00,47.0,43.6,29.85,NNE,20,11.5,11.5,88,0.00,CLR,,0.51,WeatherDisplay:10.37,2013-04-11 12:40:00,
2013-04-11 07:45:00,47.1,43.4,29.85,NNE,13,6.9,6.9,87,0.00,CLR,,0.51,WeatherDisplay:10.37,2013-04-11 12:45:00,
2013-04-11 07:50:00,47.2,43.2,29.85,NNE,20,12.7,12.7,86,0.00,CLR,,0.51,WeatherDisplay:10.37,2013-04-11 12:50:00,
2013-04-11 07:55:00,47.3,43.3,29.85,NE,45,10.5,10.5,86,0.00,CLR,,0.51,WeatherDisplay:10.37,2013-04-11 12:55:00,
2013-04-11 08:00:00,47.2,43.2,29.85,NNW,341,6.9,6.9,86,0.00,CLR,,0.51,WeatherDisplay:10.37,2013-04-11 13:00:00,
2013-04-11 08:05:00,47.3,43.3,29.85,NNE,25,5.8,5.8,86,0.00,CLR,,0.51,WeatherDisplay:10.37,2013-04-11 13:05:00,
2013-04-11 08:10:00,47.5,43.8,29.85,NNE,16,10.4,10.4,87,0.00,CLR,,0.51,WeatherDisplay:10.37,2013-04-11 13:10:00,
2013-04-11 08:15:00,47.8,44.1,29.85,NNE,12,11.5,11.5,87,0.00,CLR,,0.51,WeatherDisplay:10.37,2013-04-11 13:15:00,
2013-04-11 08:20:00,48.2,44.5,29.85,North,4,9.2,9.2,87,0.00,CLR,,0.51,WeatherDisplay:10.37,2013-04-11 13:20:00,
2013-04-11 08:25:00,48.6,44.6,29.85,NE,53,9.2,9.2,86,0.00,CLR,,0.51,WeatherDisplay:10.37,2013-04-11 13:25:00,
2013-04-11 08:30:00,49.0,45.0,29.87,NNE,25,11.5,11.5,86,0.00,CLR,,0.51,WeatherDisplay:10.37,2013-04-11 13:30:00,
2013-04-11 08:35:00,49.2,44.9,29.88,ENE,61,9.2,9.2,85,0.00,CLR,,0.51,WeatherDisplay:10.37,2013-04-11 13:35:00,
2013-04-11 08:40:00,49.6,45.3,29.88,North,1,9.2,9.2,85,0.00,CLR,,0.51,WeatherDisplay:10.37,2013-04-11 13:40:00,
2013-04-11 08:45:00,50.1,45.5,29.88,ENE,60,13.8,13.8,84,0.00,CLR,,0.51,WeatherDisplay:10.37,2013-04-11 13:45:00,
2013-04-11 08:50:00,50.4,45.7,29.88,North,1,10.4,10.4,84,0.00,CLR,,0.51,WeatherDisplay:10.37,2013-04-11 13:50:00,
2013-04-11 08:55:00,50.4,45.4,29.89,North,5,15.0,15.0,83,0.00,CLR,,0.51,WeatherDisplay:10.37,2013-04-11 13:55:00,
2013-04-11 09:00:00,50.7,45.7,29.90,North,356,12.7,12.7,83,0.00,CLR,,0.51,WeatherDisplay:10.37,2013-04-11 14:00:00,
2013-04-11 09:05:00,50.4,45.4,29.90,North,1,15.0,15.0,83,0.00,CLR,,0.51,WeatherDisplay:10.37,2013-04-11 14:05:00,
2013-04-11 09:10:00,50.8,45.8,29.91,NW,323,11.6,11.6,83,0.00,CLR,,0.51,WeatherDisplay:10.37,2013-04-11 14:10:00,
2013-04-11 09:15:00,51.3,46.0,29.91,North,0,9.2,9.2,82,0.00,CLR,,0.51,WeatherDisplay:10.37,2013-04-11 14:15:00,
2013-04-11 09:20:00,51.9,46.9,29.91,North,352,13.8,13.8,83,0.00,CLR,,0.51,WeatherDisplay:10.37,2013-04-11 14:20:00,
2013-04-11 09:25:00,52.0,47.0,29.92,North,7,6.9,6.9,83,0.00,CLR,,0.51,WeatherDisplay:10.37,2013-04-11 14:25:00,
2013-04-11 09:30:00,52.2,46.2,29.92,NW,325,11.5,11.5,80,0.00,CLR,,0.51,WeatherDisplay:10.37,2013-04-11 14:30:00,
2013-04-11 09:35:00,52.2,45.9,29.92,North,359,13.8,13.8,79,0.00,CLR,,0.51,WeatherDisplay:10.37,2013-04-11 14:35:00,
2013-04-11 09:40:00,52.3,45.6,29.93,North,1,11.5,11.5,78,0.00,CLR,,0.51,WeatherDisplay:10.37,2013-04-11 14:40:00,
2013-04-11 09:45:00,52.1,45.8,29.93,NNE,14,13.8,13.8,79,0.00,CLR,,0.51,WeatherDisplay:10.37,2013-04-11 14:45:00,
2013-04-11 09:50:00,52.2,45.9,29.93,NW,321,12.7,12.7,79,0.00,CLR,,0.51,WeatherDisplay:10.37,2013-04-11 14:50:00,
2013-04-11 09:55:00,52.5,45.8,29.93,North,351,11.5,11.5,78,0.00,CLR,,0.51,WeatherDisplay:10.37,2013-04-11 14:55:00,
2013-04-11 10:00:00,52.7,45.3,29.93,North,5,13.8,13.8,76,0.00,CLR,,0.51,WeatherDisplay:10.37,2013-04-11 15:00:00,
2013-04-11 10:05:00,53.0,45.3,29.93,NE,46,16.1,16.1,75,0.00,CLR,,0.51,WeatherDisplay:10.37,2013-04-11 15:05:00,
2013-04-11 10:10:00,53.1,45.0,29.93,North,1,13.8,13.8,74,0.00,CLR,,0.51,WeatherDisplay:10.37,2013-04-11 15:10:00,
2013-04-11 10:15:00,53.2,45.1,29.93,North,7,12.7,12.7,74,0.00,CLR,,0.51,WeatherDisplay:10.37,2013-04-11 15:15:00,
2013-04-11 10:20:00,53.6,44.8,29.94,NNE,14,11.5,11.5,72,0.00,CLR,,0.51,WeatherDisplay:10.37,2013-04-11 15:20:00,
2013-04-11 10:25:00,54.0,45.2,29.94,North,9,8.1,8.1,72,0.00,CLR,,0.51,WeatherDisplay:10.37,2013-04-11 15:25:00,
2013-04-11 10:30:00,54.5,45.3,29.94,NW,326,6.9,6.9,71,0.00,CLR,,0.51,WeatherDisplay:10.37,2013-04-11 15:30:00,
2013-04-11 10:35:00,54.9,45.7,29.94,North,356,11.5,11.5,71,0.00,CLR,,0.51,WeatherDisplay:10.37,2013-04-11 15:35:00,
2013-04-11 10:40:00,55.1,45.5,29.94,North,8,9.2,9.2,70,0.00,CLR,,0.51,WeatherDisplay:10.37,2013-04-11 15:40:00,
2013-04-11 10:45:00,55.3,45.3,29.94,North,359,13.8,13.8,69,0.00,CLR,,0.51,WeatherDisplay:10.37,2013-04-11 15:45:00,
2013-04-11 10:50:00,55.4,45.0,29.94,North,359,11.5,11.5,68,0.00,CLR,,0.51,WeatherDisplay:10.37,2013-04-11 15:50:00,
2013-04-11 10:55:00,55.8,44.6,29.94,NNW,330,15.0,15.0,66,0.00,CLR,,0.51,WeatherDisplay:10.37,2013-04-11 15:55:00,
2013-04-11 11:00:00,56.3,45.9,29.94,NNW,333,9.2,9.2,68,0.00,CLR,,0.51,WeatherDisplay:10.37,2013-04-11 16:00:00,
2013-04-11 11:05:00,56.9,45.3,29.94,North,8,11.5,11.5,65,0.00,CLR,,0.51,WeatherDisplay:10.37,2013-04-11 16:05:00,
2013-04-11 11:10:00,56.9,45.3,29.93,West,272,13.8,13.8,65,0.00,CLR,,0.51,WeatherDisplay:10.37,2013-04-11 16:10:00,
2013-04-11 11:15:00,57.0,45.7,29.93,NNW,328,8.1,8.1,66,0.00,CLR,,0.51,WeatherDisplay:10.37,2013-04-11 16:15:00,
2013-04-11 11:20:00,57.7,46.4,29.93,North,359,9.2,9.2,66,0.00,CLR,,0.51,WeatherDisplay:10.37,2013-04-11 16:20:00,
2013-04-11 11:25:00,57.9,45.4,29.94,North,4,11.5,11.5,63,0.00,CLR,,0.51,WeatherDisplay:10.37,2013-04-11 16:25:00,
2013-04-11 11:30:00,58.2,45.7,29.94,WNW,300,12.7,12.7,63,0.00,CLR,,0.51,WeatherDisplay:10.37,2013-04-11 16:30:00,
2013-04-11 11:35:00,58.6,45.6,29.94,NNE,32,10.4,10.4,62,0.00,CLR,,0.51,WeatherDisplay:10.37,2013-04-11 16:35:00,
2013-04-11 11:40:00,58.7,44.8,29.94,NNW,338,11.5,11.5,60,0.00,CLR,,0.51,WeatherDisplay:10.37,2013-04-11 16:40:00,
2013-04-11 11:45:00,59.4,45.5,29.94,North,6,10.4,10.4,60,0.00,CLR,,0.51,WeatherDisplay:10.37,2013-04-11 16:45:00,
2013-04-11 11:50:00,60.0,45.6,29.93,NNE,23,5.8,5.8,59,0.00,CLR,,0.51,WeatherDisplay:10.37,2013-04-11 16:50:00,
2013-04-11 11:55:00,60.1,44.3,29.93,NNE,21,11.5,11.5,56,0.00,CLR,,0.51,WeatherDisplay:10.37,2013-04-11 16:55:00,
2013-04-11 12:00:00,60.3,45.9,29.93,NNE,19,10.4,10.4,59,0.00,CLR,,0.51,WeatherDisplay:10.37,2013-04-11 17:00:00,
2013-04-11 12:05:00,60.5,45.2,29.93,West,276,11.5,11.5,57,0.00,CLR,,0.51,WeatherDisplay:10.37,2013-04-11 17:05:00,
2013-04-11 12:10:00,60.4,45.1,29.93,NNE,15,11.5,11.5,57,0.00,CLR,,0.51,WeatherDisplay:10.37,2013-04-11 17:10:00,
2013-04-11 12:15:00,61.0,45.2,29.93,NNW,336,13.8,13.8,56,0.00,CLR,,0.51,WeatherDisplay:10.37,2013-04-11 17:15:00,
2013-04-11 12:20:00,61.0,43.7,29.92,NNW,334,17.3,17.3,53,0.00,CLR,,0.51,WeatherDisplay:10.37,2013-04-11 17:20:00,
2013-04-11 12:25:00,60.9,45.1,29.91,North,0,10.4,10.4,56,0.00,CLR,,0.51,WeatherDisplay:10.37,2013-04-11 17:25:00,
2013-04-11 12:30:00,61.6,45.7,29.91,NNW,345,5.8,5.8,56,0.00,CLR,,0.51,WeatherDisplay:10.37,2013-04-11 17:30:00,
2013-04-11 12:35:00,62.1,44.8,29.91,NNE,13,11.5,11.5,53,0.00,CLR,,0.51,WeatherDisplay:10.37,2013-04-11 17:35:00,
2013-04-11 12:40:00,62.2,44.9,29.90,North,7,6.9,6.9,53,0.00,CLR,,0.51,WeatherDisplay:10.37,2013-04-11 17:40:00,
2013-04-11 12:45:00,62.0,45.2,29.90,NW,322,6.9,6.9,54,0.00,CLR,,0.51,WeatherDisplay:10.37,2013-04-11 17:45:00,
2013-04-11 12:50:00,62.1,45.2,29.90,North,349,11.5,11.5,54,0.00,CLR,,0.51,WeatherDisplay:10.37,2013-04-11 17:50:00,
2013-04-11 12:55:00,62.6,44.7,29.90,WSW,257,10.4,10.4,52,0.00,CLR,,0.51,WeatherDisplay:10.37,2013-04-11 17:55:00,
2013-04-11 13:00:00,63.3,45.9,29.89,NW,311,9.2,9.2,53,0.00,CLR,,0.51,WeatherDisplay:10.37,2013-04-11 18:00:00,
2013-04-11 13:05:00,63.3,45.9,29.89,NNW,342,9.2,9.2,53,0.00,CLR,,0.51,WeatherDisplay:10.37,2013-04-11 18:05:00,
2013-04-11 13:10:00,63.3,44.3,29.89,WNW,295,6.3,6.3,50,0.00,CLR,,0.51,WeatherDisplay:10.37,2013-04-11 18:10:00,
2013-04-11 13:15:00,63.4,45.5,29.88,NE,38,5.8,5.8,52,0.00,CLR,,0.51,WeatherDisplay:10.37,2013-04-11 18:15:00,
2013-04-11 13:20:00,64.0,45.5,29.88,NE,50,9.2,9.2,51,0.00,CLR,,0.51,WeatherDisplay:10.37,2013-04-11 18:20:00,
2013-04-11 13:25:00,63.9,45.4,29.88,WNW,302,11.5,11.5,51,0.00,CLR,,0.51,WeatherDisplay:10.37,2013-04-11 18:25:00,
2013-04-11 13:30:00,64.3,45.8,29.88,North,1,6.9,6.9,51,0.00,CLR,,0.51,WeatherDisplay:10.37,2013-04-11 18:30:00,
2013-04-11 13:35:00,64.1,45.6,29.88,North,350,8.1,8.1,51,0.00,CLR,,0.51,WeatherDisplay:10.37,2013-04-11 18:35:00,
2013-04-11 13:40:00,64.4,45.9,29.88,NE,41,11.5,11.5,51,0.00,CLR,,0.51,WeatherDisplay:10.37,2013-04-11 18:40:00,
2013-04-11 13:45:00,64.9,46.3,29.88,North,2,5.8,5.8,51,0.00,CLR,,0.51,WeatherDisplay:10.37,2013-04-11 18:45:00,
2013-04-11 13:50:00,64.9,45.8,29.87,NE,41,5.8,5.8,50,0.00,CLR,,0.51,WeatherDisplay:10.37,2013-04-11 18:50:00,
2013-04-11 13:55:00,65.9,46.7,29.87,North,3,9.2,9.2,50,0.00,CLR,,0.51,WeatherDisplay:10.37,2013-04-11 18:55:00,
2013-04-11 14:00:00,66.0,45.7,29.87,NNE,23,12.7,12.7,48,0.00,CLR,,0.51,WeatherDisplay:10.37,2013-04-11 19:00:00,
2013-04-11 14:05:00,65.6,46.5,29.86,NNW,329,8.1,8.1,50,0.00,CLR,,0.51,WeatherDisplay:10.37,2013-04-11 19:05:00,
2013-04-11 14:10:00,65.9,46.7,29.86,North,11,6.9,7.3,50,0.00,CLR,,0.51,WeatherDisplay:10.37,2013-04-11 19:10:00,
2013-04-11 14:15:00,66.0,46.8,29.86,NNE,27,9.2,9.2,50,0.00,CLR,,0.51,WeatherDisplay:10.37,2013-04-11 19:15:00,
2013-04-11 14:20:00,66.1,46.9,29.85,NNE,25,5.8,5.8,50,0.00,CLR,,0.51,WeatherDisplay:10.37,2013-04-11 19:20:00,
2013-04-11 14:25:00,66.5,47.3,29.85,NNW,344,10.4,10.4,50,0.00,CLR,,0.51,WeatherDisplay:10.37,2013-04-11 19:25:00,
2013-04-11 14:30:00,66.9,47.1,29.85,NNW,347,5.8,6.4,49,0.00,CLR,,0.51,WeatherDisplay:10.37,2013-04-11 19:30:00,
2013-04-11 14:35:00,66.8,47.0,29.85,NNE,27,5.8,6.1,49,0.00,CLR,,0.51,WeatherDisplay:10.37,2013-04-11 19:35:00,
2013-04-11 14:40:00,66.9,47.6,29.84,NE,34,6.9,6.9,50,0.00,CLR,,0.51,WeatherDisplay:10.37,2013-04-11 19:40:00,
2013-04-11 14:45:00,67.3,46.9,29.84,North,6,5.8,5.8,48,0.00,CLR,,0.51,WeatherDisplay:10.37,2013-04-11 19:45:00,
2013-04-11 14:50:00,67.3,46.9,29.84,NE,50,5.8,5.8,48,0.00,CLR,,0.51,WeatherDisplay:10.37,2013-04-11 19:50:00,
2013-04-11 14:55:00,67.5,47.1,29.84,North,1,6.9,6.9,48,0.00,CLR,,0.51,WeatherDisplay:10.37,2013-04-11 19:55:00,
2013-04-11 15:00:00,67.5,47.1,29.84,NNE,32,5.8,5.8,48,0.00,CLR,,0.51,WeatherDisplay:10.37,2013-04-11 20:00:00,
2013-04-11 15:05:00,67.8,47.9,29.83,NW,319,10.4,10.4,49,0.00,CLR,,0.51,WeatherDisplay:10.37,2013-04-11 20:05:00,
2013-04-11 15:10:00,68.5,47.5,29.83,NE,43,10.4,10.4,47,0.00,CLR,,0.51,WeatherDisplay:10.37,2013-04-11 20:10:00,
2013-04-11 15:15:00,68.1,47.7,29.83,NE,39,9.2,9.2,48,0.00,CLR,,0.51,WeatherDisplay:10.37,2013-04-11 20:15:00,
2013-04-11 15:20:00,68.2,47.8,29.82,North,355,5.8,5.8,48,0.00,CLR,,0.51,WeatherDisplay:10.37,2013-04-11 20:20:00,
2013-04-11 15:25:00,68.8,48.3,29.83,NE,36,2.3,3.0,48,0.00,CLR,,0.51,WeatherDisplay:10.37,2013-04-11 20:25:00,
2013-04-11 15:30:00,69.2,48.1,29.82,NNE,25,5.8,5.8,47,0.00,CLR,,0.51,WeatherDisplay:10.37,2013-04-11 20:30:00,
2013-04-11 15:35:00,69.0,47.9,29.82,NNE,28,6.9,6.9,47,0.00,CLR,,0.51,WeatherDisplay:10.37,2013-04-11 20:35:00,
2013-04-11 15:40:00,69.0,47.4,29.82,ENE,61,4.6,4.6,46,0.00,CLR,,0.51,WeatherDisplay:10.37,2013-04-11 20:40:00,
2013-04-11 15:45:00,69.2,47.5,29.82,NE,53,13.8,13.8,46,0.00,CLR,,0.51,WeatherDisplay:10.37,2013-04-11 20:45:00,
2013-04-11 15:50:00,69.6,48.5,29.81,NE,36,11.5,11.5,47,0.00,CLR,,0.51,WeatherDisplay:10.37,2013-04-11 20:50:00,
2013-04-11 15:55:00,69.6,47.9,29.81,ENE,72,5.8,5.8,46,0.00,CLR,,0.51,WeatherDisplay:10.37,2013-04-11 20:55:00,
2013-04-11 16:00:00,69.7,48.0,29.80,NNE,23,6.9,6.9,46,0.00,CLR,,0.51,WeatherDisplay:10.37,2013-04-11 21:00:00,
2013-04-11 16:06:00,70.0,48.3,29.80,NNW,329,5.8,5.8,46,0.00,CLR,,0.51,WeatherDisplay:10.37,2013-04-11 21:06:00,
2013-04-11 16:11:00,70.6,48.2,29.79,North,359,6.9,6.9,45,0.00,CLR,,0.51,WeatherDisplay:10.37,2013-04-11 21:11:00,
2013-04-11 16:16:00,70.6,48.2,29.79,ENE,59,12.7,12.7,45,0.00,CLR,,0.51,WeatherDisplay:10.37,2013-04-11 21:16:00,
2013-04-11 16:21:00,70.1,47.8,29.78,NNE,23,5.8,5.8,45,0.00,CLR,,0.51,WeatherDisplay:10.37,2013-04-11 21:21:00,
2013-04-11 16:26:00,70.3,48.5,29.78,NE,46,6.9,6.9,46,0.00,CLR,,0.51,WeatherDisplay:10.37,2013-04-11 21:26:00,
2013-04-11 16:31:00,70.7,48.3,29.78,NNE,22,10.4,10.4,45,0.00,CLR,,0.51,WeatherDisplay:10.37,2013-04-11 21:31:00,
2013-04-11 16:36:00,70.7,48.9,29.78,East,84,5.8,5.8,46,0.00,CLR,,0.51,WeatherDisplay:10.37,2013-04-11 21:36:00,
2013-04-11 16:41:00,70.7,48.3,29.78,East,86,4.6,4.6,45,0.00,CLR,,0.51,WeatherDisplay:10.37,2013-04-11 21:41:00,
2013-04-11 16:46:00,70.8,50.1,29.78,ENE,75,5.8,5.8,48,0.00,CLR,,0.51,WeatherDisplay:10.37,2013-04-11 21:46:00,
2013-04-11 16:51:00,70.9,49.1,29.78,NNE,23,7.4,7.4,46,0.00,CLR,,0.51,WeatherDisplay:10.37,2013-04-11 21:51:00,
2013-04-11 16:56:00,70.8,49.0,29.77,NNE,15,5.8,5.8,46,0.00,CLR,,0.51,WeatherDisplay:10.37,2013-04-11 21:56:00,
2013-04-11 17:01:00,71.2,49.9,29.77,ENE,70,1.1,3.1,47,0.00,CLR,,0.51,WeatherDisplay:10.37,2013-04-11 22:01:00,
2013-04-11 17:06:00,71.2,49.4,29.77,East,94,5.8,5.8,46,0.00,CLR,,0.51,WeatherDisplay:10.37,2013-04-11 22:06:00,
2013-04-11 17:11:00,70.9,49.7,29.78,ENE,68,5.8,5.8,47,0.00,CLR,,0.51,WeatherDisplay:10.37,2013-04-11 22:11:00,
2013-04-11 17:16:00,70.5,49.9,29.77,ENE,57,5.8,5.8,48,0.00,CLR,,0.51,WeatherDisplay:10.37,2013-04-11 22:16:00,
2013-04-11 17:21:00,70.7,50.0,29.77,East,89,6.9,6.9,48,0.00,CLR,,0.51,WeatherDisplay:10.37,2013-04-11 22:21:00,
2013-04-11 17:26:00,70.3,51.3,29.77,NNE,25,6.9,6.9,51,0.00,CLR,,0.51,WeatherDisplay:10.37,2013-04-11 22:26:00,
2013-04-11 17:31:00,70.0,51.6,29.77,East,86,9.2,9.2,52,0.00,CLR,,0.51,WeatherDisplay:10.37,2013-04-11 22:31:00,
2013-04-11 17:36:00,69.4,51.5,29.77,East,95,5.8,5.8,53,0.00,CLR,,0.51,WeatherDisplay:10.37,2013-04-11 22:36:00,
2013-04-11 17:41:00,69.1,51.8,29.77,ESE,113,8.1,8.1,54,0.00,CLR,,0.51,WeatherDisplay:10.37,2013-04-11 22:41:00,
2013-04-11 17:46:00,68.4,51.6,29.77,ESE,117,11.5,11.5,55,0.00,CLR,,0.51,WeatherDisplay:10.37,2013-04-11 22:46:00,
2013-04-11 17:51:00,67.9,52.1,29.77,ESE,107,6.9,6.9,57,0.00,CLR,,0.51,WeatherDisplay:10.37,2013-04-11 22:51:00,
2013-04-11 17:56:00,67.6,51.3,29.77,ENE,65,5.8,5.8,56,0.00,CLR,,0.51,WeatherDisplay:10.37,2013-04-11 22:56:00,
2013-04-11 18:01:00,67.6,51.8,29.77,ESE,111,10.4,10.4,57,0.00,CLR,,0.51,WeatherDisplay:10.37,2013-04-11 23:01:00,
2013-04-11 18:06:00,67.3,52.0,29.77,East,101,9.2,9.2,58,0.00,CLR,,0.51,WeatherDisplay:10.37,2013-04-11 23:06:00,
2013-04-11 18:11:00,67.4,52.1,29.77,East,79,9.2,9.2,58,0.00,CLR,,0.51,WeatherDisplay:10.37,2013-04-11 23:11:00,
2013-04-11 18:16:00,67.1,51.4,29.77,ENE,63,5.8,5.8,57,0.00,CLR,,0.51,WeatherDisplay:10.37,2013-04-11 23:16:00,
2013-04-11 18:21:00,66.9,52.6,29.77,ESE,103,6.9,6.9,60,0.00,CLR,,0.51,WeatherDisplay:10.37,2013-04-11 23:21:00,
2013-04-11 18:26:00,66.9,53.0,29.77,ESE,123,5.8,5.8,61,0.00,CLR,,0.51,WeatherDisplay:10.37,2013-04-11 23:26:00,
2013-04-11 18:31:00,66.5,52.6,29.77,ESE,116,5.8,5.8,61,0.00,CLR,,0.51,WeatherDisplay:10.37,2013-04-11 23:31:00,
2013-04-11 18:36:00,66.0,52.2,29.77,SE,139,6.9,6.9,61,0.00,CLR,,0.51,WeatherDisplay:10.37,2013-04-11 23:36:00,
2013-04-11 18:41:00,65.8,52.0,29.77,ESE,122,6.9,6.9,61,0.00,CLR,,0.51,WeatherDisplay:10.37,2013-04-11 23:41:00,
2013-04-11 18:46:00,65.8,52.4,29.77,East,100,6.3,6.3,62,0.00,CLR,,0.51,WeatherDisplay:10.37,2013-04-11 23:46:00,
2013-04-11 18:51:00,65.8,52.4,29.77,ESE,116,3.5,3.5,62,0.00,CLR,,0.51,WeatherDisplay:10.37,2013-04-11 23:51:00,
2013-04-11 18:56:00,65.7,52.8,29.77,ESE,103,5.8,5.8,63,0.00,CLR,,0.51,WeatherDisplay:10.37,2013-04-11 23:56:00,
2013-04-11 19:01:00,65.5,53.0,29.78,ESE,121,4.6,4.6,64,0.00,CLR,,0.51,WeatherDisplay:10.37,2013-04-12 00:01:00,
2013-04-11 19:06:00,65.3,53.6,29.78,ESE,108,3.5,3.5,66,0.00,CLR,,0.51,WeatherDisplay:10.37,2013-04-12 00:06:00,
2013-04-11 19:11:00,64.9,53.3,29.78,ESE,103,6.9,6.9,66,0.00,CLR,,0.51,WeatherDisplay:10.37,2013-04-12 00:11:00,
2013-04-11 19:17:00,64.4,53.2,29.79,SE,124,5.8,5.8,67,0.00,CLR,,0.51,WeatherDisplay:10.37,2013-04-12 00:17:00,
2013-04-11 19:22:00,64.0,53.2,29.79,ESE,122,4.6,4.6,68,0.00,CLR,,0.51,WeatherDisplay:10.37,2013-04-12 00:22:00,
2013-04-11 19:27:00,63.6,53.2,29.79,ESE,105,9.2,9.2,69,0.00,CLR,,0.51,WeatherDisplay:10.37,2013-04-12 00:27:00,
2013-04-11 19:32:00,63.2,53.3,29.79,SE,127,5.8,5.8,70,0.00,CLR,,0.51,WeatherDisplay:10.37,2013-04-12 00:32:00,
2013-04-11 19:37:00,62.9,53.4,29.79,ESE,113,3.5,3.5,71,0.00,CLR,,0.51,WeatherDisplay:10.37,2013-04-12 00:37:00,
2013-04-11 19:42:00,62.5,53.3,29.79,SE,127,3.5,3.5,72,0.00,CLR,,0.51,WeatherDisplay:10.37,2013-04-12 00:42:00,
2013-04-11 19:47:00,62.2,53.4,29.79,ESE,122,4.6,4.6,73,0.00,CLR,,0.51,WeatherDisplay:10.37,2013-04-12 00:47:00,
2013-04-11 19:52:00,61.8,53.1,29.79,ESE,111,5.8,5.8,73,0.00,CLR,,0.51,WeatherDisplay:10.37,2013-04-12 00:52:00,
2013-04-11 19:57:00,61.5,53.1,29.79,ESE,107,4.6,4.6,74,0.00,CLR,,0.51,WeatherDisplay:10.37,2013-04-12 00:57:00,
2013-04-11 20:02:00,61.3,52.9,29.79,ESE,110,3.5,3.5,74,0.00,CLR,,0.51,WeatherDisplay:10.37,2013-04-12 01:02:00,
2013-04-11 20:07:00,61.0,53.0,29.79,ESE,109,3.5,3.5,75,0.00,CLR,,0.51,WeatherDisplay:10.37,2013-04-12 01:07:00,
2013-04-11 20:12:00,60.8,52.8,29.79,ESE,116,2.3,2.3,75,0.00,CLR,,0.51,WeatherDisplay:10.37,2013-04-12 01:12:00,
2013-04-11 20:17:00,60.6,53.0,29.79,ESE,110,3.5,3.5,76,0.00,CLR,,0.51,WeatherDisplay:10.37,2013-04-12 01:17:00,
2013-04-11 20:22:00,60.4,52.8,29.79,ESE,117,2.3,2.3,76,0.00,CLR,,0.51,WeatherDisplay:10.37,2013-04-12 01:22:00,
2013-04-11 20:27:00,60.2,53.0,29.79,SE,127,2.3,2.3,77,0.00,CLR,,0.51,WeatherDisplay:10.37,2013-04-12 01:27:00,
2013-04-11 20:32:00,60.1,52.9,29.79,SE,124,3.5,3.5,77,0.00,CLR,,0.51,WeatherDisplay:10.37,2013-04-12 01:32:00,
2013-04-11 20:37:00,60.0,53.1,29.79,ESE,120,2.3,2.3,78,0.00,CLR,,0.51,WeatherDisplay:10.37,2013-04-12 01:37:00,
2013-04-11 20:42:00,59.9,53.4,29.79,ESE,108,5.8,5.8,79,0.00,CLR,,0.51,WeatherDisplay:10.37,2013-04-12 01:42:00,
2013-04-11 20:47:00,60.0,53.5,29.79,SE,125,3.5,3.5,79,0.00,CLR,,0.51,WeatherDisplay:10.37,2013-04-12 01:47:00,
2013-04-11 20:52:00,59.9,53.4,29.80,SE,125,2.3,2.3,79,0.00,CLR,,0.51,WeatherDisplay:10.37,2013-04-12 01:52:00,
2013-04-11 20:58:00,59.9,53.4,29.80,ESE,117,3.5,3.5,79,0.00,CLR,,0.51,WeatherDisplay:10.37,2013-04-12 01:58:00,
2013-04-11 21:03:00,59.8,53.6,29.80,ESE,117,3.5,3.5,80,0.00,CLR,,0.51,WeatherDisplay:10.37,2013-04-12 02:03:00,
2013-04-11 21:08:00,59.7,53.5,29.80,SE,130,5.8,5.8,80,0.00,CLR,,0.51,WeatherDisplay:10.37,2013-04-12 02:08:00,
2013-04-11 21:13:00,59.6,53.4,29.80,ESE,116,3.5,3.5,80,0.00,CLR,,0.51,WeatherDisplay:10.37,2013-04-12 02:13:00,
2013-04-11 21:18:00,59.5,53.7,29.80,SE,130,4.6,4.6,81,0.00,CLR,,0.51,WeatherDisplay:10.37,2013-04-12 02:18:00,
2013-04-11 21:23:00,59.5,53.7,29.80,SE,131,5.8,5.8,81,0.00,CLR,,0.51,WeatherDisplay:10.37,2013-04-12 02:23:00,
2013-04-11 21:28:00,59.6,53.8,29.80,SE,131,3.5,3.5,81,0.00,CLR,,0.51,WeatherDisplay:10.37,2013-04-12 02:28:00,
2013-04-11 21:33:00,59.7,53.9,29.81,ESE,108,4.6,4.6,81,0.00,CLR,,0.51,WeatherDisplay:10.37,2013-04-12 02:33:00,
2013-04-11 21:38:00,59.8,54.0,29.81,ESE,102,3.5,3.5,81,0.00,CLR,,0.51,WeatherDisplay:10.37,2013-04-12 02:38:00,
2013-04-11 21:43:00,59.8,54.0,29.82,ESE,116,2.3,2.3,81,0.00,CLR,,0.51,WeatherDisplay:10.37,2013-04-12 02:43:00,
2013-04-11 21:48:00,59.8,54.0,29.82,ESE,102,3.5,3.5,81,0.00,CLR,,0.51,WeatherDisplay:10.37,2013-04-12 02:48:00,
2013-04-11 21:53:00,59.8,54.0,29.82,ESE,112,2.3,2.3,81,0.00,CLR,,0.51,WeatherDisplay:10.37,2013-04-12 02:53:00,
2013-04-11 21:58:00,59.7,53.9,29.82,ESE,112,2.3,2.3,81,0.00,CLR,,0.51,WeatherDisplay:10.37,2013-04-12 02:58:00,
2013-04-11 22:03:00,59.6,54.1,29.82,ESE,111,2.3,2.3,82,0.00,CLR,,0.51,WeatherDisplay:10.37,2013-04-12 03:03:00,
2013-04-11 22:08:00,59.5,53.7,29.82,East,100,3.5,3.5,81,0.00,CLR,,0.51,WeatherDisplay:10.37,2013-04-12 03:08:00,
2013-04-11 22:13:00,59.3,53.8,29.82,ESE,105,3.5,3.5,82,0.00,CLR,,0.51,WeatherDisplay:10.37,2013-04-12 03:13:00,
2013-04-11 22:18:00,59.1,53.6,29.83,East,101,1.1,1.1,82,0.00,CLR,,0.51,WeatherDisplay:10.37,2013-04-12 03:18:00,
2013-04-11 22:23:00,58.9,53.7,29.84,ESE,103,1.1,0.0,83,0.00,CLR,,0.51,WeatherDisplay:10.37,2013-04-12 03:23:00,
2013-04-11 22:28:00,58.8,53.6,29.84,ESE,103,0.0,0.0,83,0.00,CLR,,0.51,WeatherDisplay:10.37,2013-04-12 03:28:00,
2013-04-11 22:33:00,58.6,53.8,29.84,ESE,103,0.0,0.1,84,0.00,CLR,,0.51,WeatherDisplay:10.37,2013-04-12 03:33:00,
2013-04-11 22:38:00,58.5,53.7,29.84,ESE,103,0.0,0.0,84,0.00,CLR,,0.51,WeatherDisplay:10.37,2013-04-12 03:38:00,
2013-04-11 22:43:00,58.3,53.8,29.85,ESE,103,0.0,0.0,85,0.00,CLR,,0.51,WeatherDisplay:10.37,2013-04-12 03:43:00,
2013-04-11 22:48:00,58.0,53.5,29.85,ESE,103,0.0,0.0,85,0.00,CLR,,0.51,WeatherDisplay:10.37,2013-04-12 03:48:00,
2013-04-11 22:53:00,57.7,53.2,29.85,ESE,103,0.0,0.0,85,0.00,CLR,,0.51,WeatherDisplay:10.37,2013-04-12 03:53:00,
2013-04-11 22:58:00,57.4,53.2,29.85,ESE,103,0.0,0.0,86,0.00,CLR,,0.51,WeatherDisplay:10.37,2013-04-12 03:58:00,
2013-04-11 23:00:00,57.3,53.1,29.85,ESE,102,0.0,0.0,86,0.00,CLR,,0.51,WeatherDisplay:10.37,2013-04-12 04:00:00,
2013-04-11 23:05:00,56.8,53.0,29.86,ESE,103,0.0,0.0,87,0.00,CLR,,0.51,WeatherDisplay:10.37,2013-04-12 04:05:00,
2013-04-11 23:10:00,56.5,53.0,29.86,ESE,103,0.0,0.0,88,0.00,CLR,,0.51,WeatherDisplay:10.37,2013-04-12 04:10:00,
2013-04-11 23:15:00,56.3,53.1,29.86,ESE,103,0.0,0.0,89,0.00,CLR,,0.51,WeatherDisplay:10.37,2013-04-12 04:15:00,
2013-04-11 23:20:00,56.3,53.1,29.86,ESE,103,0.0,0.0,89,0.00,CLR,,0.51,WeatherDisplay:10.37,2013-04-12 04:20:00,
2013-04-11 23:25:00,56.3,53.4,29.86,ESE,103,0.0,0.0,90,0.00,CLR,,0.51,WeatherDisplay:10.37,2013-04-12 04:25:00,
2013-04-11 23:30:00,56.3,53.1,29.87,ESE,103,0.0,0.0,89,0.00,CLR,,0.51,WeatherDisplay:10.37,2013-04-12 04:30:00,
2013-04-11 23:35:00,56.3,53.1,29.87,ESE,102,0.0,0.0,89,0.00,CLR,,0.51,WeatherDisplay:10.37,2013-04-12 04:35:00,
2013-04-11 23:40:00,56.3,53.1,29.87,ESE,103,0.0,0.0,89,0.00,CLR,,0.51,WeatherDisplay:10.37,2013-04-12 04:40:00,
2013-04-11 23:45:00,56.1,52.9,29.88,ESE,103,0.0,0.0,89,0.00,CLR,,0.51,WeatherDisplay:10.37,2013-04-12 04:45:00,
2013-04-11 23:50:00,55.9,52.7,29.88,ESE,102,0.0,0.0,89,0.00,CLR,,0.51,WeatherDisplay:10.37,2013-04-12 04:50:00,
2013-04-11 23:55:00,55.9,53.0,29.88,ESE,103,0.0,0.0,90,0.00,CLR,,0.51,WeatherDisplay:10.37,2013-04-12 04:55:00,